createdAt,value
2024-05-09T00:00:35.320Z,2.20
2024-05-09T00:03:15.549Z,2.20
2024-05-09T00:05:47.571Z,2.70
2024-05-09T00:08:21.575Z,2.30
2024-05-09T00:10:58.764Z,2.80
2024-05-09T00:13:43.706Z,2.47
2024-05-09T00:16:15.890Z,2.77
2024-05-09T00:18:53.057Z,2.57
2024-05-09T00:21:40.641Z,2.23
2024-05-09T00:24:21.438Z,2.47
2024-05-09T00:26:58.414Z,2.40
2024-05-09T00:29:40.359Z,2.53
2024-05-09T00:32:15.738Z,2.60
2024-05-09T00:34:52.293Z,2.87
2024-05-09T00:37:24.152Z,2.67
2024-05-09T00:40:02.824Z,2.60
2024-05-09T00:42:35.136Z,2.43
2024-05-09T00:45:10.435Z,2.40
2024-05-09T00:47:50.904Z,2.80
2024-05-09T00:50:36.141Z,1.95
2024-05-09T00:53:16.090Z,2.70
2024-05-09T00:55:51.993Z,2.83
2024-05-09T00:58:29.019Z,2.30
2024-05-09T01:01:05.596Z,2.33
2024-05-09T01:03:46.633Z,2.63
2024-05-09T01:06:23.693Z,2.50
2024-05-09T01:08:58.846Z,2.43
2024-05-09T01:11:55.902Z,2.57
2024-05-09T01:14:37.259Z,2.43
2024-05-09T01:17:08.732Z,2.33
2024-05-09T01:19:44.589Z,2.63
2024-05-09T01:22:25.367Z,2.27
2024-05-09T01:25:01.168Z,2.53
2024-05-09T01:27:41.705Z,2.70
2024-05-09T01:30:21.243Z,2.70
2024-05-09T01:32:59.131Z,1.87
2024-05-09T01:35:32.020Z,2.70
2024-05-09T01:38:07.590Z,2.37
2024-05-09T01:40:43.567Z,2.30
2024-05-09T01:43:13.876Z,2.50
2024-05-09T01:45:53.284Z,2.43
2024-05-09T01:48:28.541Z,2.50
2024-05-09T01:51:02.836Z,2.97
2024-05-09T01:53:48.240Z,3.17
2024-05-09T01:56:23.301Z,2.30
2024-05-09T01:58:56.056Z,2.30
2024-05-09T02:01:30.046Z,3.65
2024-05-09T02:04:22.551Z,2.70
2024-05-09T02:06:57.979Z,2.50
2024-05-09T02:09:45.949Z,2.70
2024-05-09T02:12:22.724Z,2.40
2024-05-09T02:15:02.588Z,2.42
2024-05-09T02:17:35.439Z,2.87
2024-05-09T02:20:13.273Z,2.60
2024-05-09T02:22:54.090Z,2.60
2024-05-09T02:25:32.956Z,2.60
2024-05-09T02:28:10.572Z,2.87
2024-05-09T02:30:45.864Z,2.53
2024-05-09T02:33:19.110Z,2.73
2024-05-09T02:35:57.969Z,2.70
2024-05-09T02:38:30.232Z,3.10
2024-05-09T02:41:00.047Z,2.73
2024-05-09T02:43:31.773Z,2.73
2024-05-09T02:46:01.837Z,2.80
2024-05-09T02:48:33.245Z,2.93
2024-05-09T02:51:04.884Z,3.13
2024-05-09T02:53:46.415Z,3.20
2024-05-09T02:56:16.133Z,3.05
2024-05-09T02:58:53.914Z,2.90
2024-05-09T03:01:23.936Z,2.90
2024-05-09T03:03:59.232Z,2.92
2024-05-09T03:06:31.083Z,3.33
2024-05-09T03:09:05.410Z,3.07
2024-05-09T03:11:40.652Z,2.73
2024-05-09T03:14:22.104Z,2.60
2024-05-09T03:16:51.561Z,3.23
2024-05-09T03:19:27.464Z,3.00
2024-05-09T03:22:04.488Z,3.10
2024-05-09T03:24:39.181Z,2.57
2024-05-09T03:27:08.107Z,2.90
2024-05-09T03:29:43.439Z,2.83
2024-05-09T03:32:13.732Z,2.47
2024-05-09T03:34:46.651Z,2.50
2024-05-09T03:37:28.350Z,3.00
2024-05-09T03:40:02.911Z,3.08
2024-05-09T03:42:43.113Z,2.97
2024-05-09T03:45:10.758Z,2.93
2024-05-09T03:47:44.425Z,3.20
2024-05-09T03:50:26.347Z,2.97
2024-05-09T03:53:07.671Z,3.47
2024-05-09T03:55:35.471Z,2.40
2024-05-09T03:58:12.705Z,2.80
2024-05-09T04:00:42.541Z,2.70
2024-05-09T04:03:23.206Z,3.00
2024-05-09T04:05:54.864Z,3.13
2024-05-09T04:08:26.736Z,3.00
2024-05-09T04:11:01.532Z,3.33
2024-05-09T04:13:39.897Z,2.90
2024-05-09T04:16:12.498Z,3.27
2024-05-09T04:18:47.123Z,3.67
2024-05-09T04:21:16.078Z,2.80
2024-05-09T04:23:51.720Z,3.73
2024-05-09T04:26:19.743Z,2.87
2024-05-09T04:28:54.606Z,3.57
2024-05-09T04:31:27.253Z,2.77
2024-05-09T04:34:06.610Z,2.97
2024-05-09T04:36:34.543Z,2.67
2024-05-09T04:39:06.633Z,2.93
2024-05-09T04:41:37.879Z,3.03
2024-05-09T04:44:11.259Z,3.40
2024-05-09T04:46:40.970Z,3.50
2024-05-09T04:49:11.715Z,3.03
2024-05-09T04:54:36.242Z,2.83
2024-05-09T04:57:13.519Z,3.00
2024-05-09T04:59:46.613Z,3.30
2024-05-09T05:02:15.793Z,3.40
2024-05-09T05:04:49.815Z,3.60
2024-05-09T05:07:21.362Z,2.80
2024-05-09T05:09:55.281Z,3.03
2024-05-09T05:12:41.466Z,2.87
2024-05-09T05:15:12.170Z,3.27
2024-05-09T05:17:43.353Z,2.90
2024-05-09T05:20:15.219Z,3.00
2024-05-09T05:22:50.998Z,3.30
2024-05-09T05:25:22.082Z,3.20
2024-05-09T05:28:02.058Z,3.55
2024-05-09T05:30:36.301Z,4.10
2024-05-09T05:33:12.396Z,4.40
2024-05-09T05:35:43.255Z,3.70
2024-05-09T05:38:24.820Z,4.88
2024-05-09T05:40:56.137Z,3.70
2024-05-09T05:43:34.184Z,4.20
2024-05-09T05:46:10.441Z,4.43
2024-05-09T05:48:39.803Z,4.70
2024-05-09T05:51:17.603Z,5.40
2024-05-09T05:53:49.624Z,5.33
2024-05-09T05:56:22.602Z,5.50
2024-05-09T05:58:50.857Z,5.77
2024-05-09T06:01:24.466Z,5.60
2024-05-09T06:03:51.704Z,6.07
2024-05-09T06:06:22.470Z,5.73
2024-05-09T06:09:00.281Z,5.23
2024-05-09T06:11:30.924Z,6.47
2024-05-09T06:14:06.687Z,6.73
2024-05-09T06:16:38.477Z,5.20
2024-05-09T06:19:08.491Z,5.78
2024-05-09T06:21:51.795Z,6.27
2024-05-09T06:24:44.337Z,6.63
2024-05-09T06:27:14.784Z,5.90
2024-05-09T06:29:45.125Z,6.37
2024-05-09T06:32:25.338Z,5.35
2024-05-09T06:35:06.170Z,5.50
2024-05-09T06:37:40.550Z,5.45
2024-05-09T06:42:48.731Z,5.60
2024-05-09T06:45:25.569Z,5.65
2024-05-09T06:48:00.641Z,5.57
2024-05-09T06:50:36.811Z,4.22
2024-05-09T06:53:14.974Z,5.53
2024-05-09T06:55:46.204Z,4.55
2024-05-09T06:58:17.692Z,4.38
2024-05-09T07:00:45.102Z,5.07
2024-05-09T07:03:18.342Z,4.43
2024-05-09T07:05:49.495Z,4.28
2024-05-09T07:08:35.571Z,4.13
2024-05-09T07:11:12.114Z,3.50
2024-05-09T07:13:50.590Z,4.18
2024-05-09T07:16:21.919Z,3.25
2024-05-09T07:18:55.199Z,3.17
2024-05-09T07:21:27.077Z,2.70
2024-05-09T07:23:59.941Z,2.67
2024-05-09T07:26:35.823Z,2.70
2024-05-09T07:29:13.649Z,2.45
2024-05-09T07:31:45.009Z,2.60
2024-05-09T07:34:18.381Z,2.80
2024-05-09T07:36:51.722Z,2.50
2024-05-09T07:39:31.903Z,2.65
2024-05-09T07:41:59.472Z,2.13
2024-05-09T07:44:39.022Z,2.20
2024-05-09T07:48:14.650Z,2.85
2024-05-09T07:51:54.729Z,2.88
2024-05-09T07:53:35.616Z,2.80
2024-05-09T07:55:45.801Z,2.83
2024-05-09T07:58:13.689Z,2.38
2024-05-09T08:00:51.009Z,2.22
2024-05-09T08:03:18.404Z,2.40
2024-05-09T08:05:56.922Z,2.30
2024-05-09T08:08:24.424Z,2.28
2024-05-09T08:11:02.178Z,2.10
2024-05-09T08:13:33.494Z,2.17
2024-05-09T08:16:03.902Z,2.17
2024-05-09T08:18:35.148Z,2.50
2024-05-09T08:21:07.913Z,2.22
2024-05-09T08:23:37.626Z,2.25
2024-05-09T08:26:16.137Z,2.25
2024-05-09T08:28:43.166Z,2.20
2024-05-09T08:31:20.769Z,1.90
2024-05-09T08:33:56.847Z,2.33
2024-05-09T08:36:29.254Z,2.05
2024-05-09T08:38:59.323Z,1.45
2024-05-09T08:41:32.701Z,1.73
2024-05-09T08:44:02.361Z,1.27
2024-05-09T08:46:40.236Z,1.30
2024-05-09T08:49:10.702Z,1.60
2024-05-09T08:51:43.081Z,1.30
2024-05-09T08:54:13.351Z,1.58
2024-05-09T08:56:51.338Z,1.20
2024-05-09T09:02:28.121Z,1.38
2024-05-09T09:05:21.468Z,1.20
2024-05-09T09:07:59.010Z,1.58
2024-05-09T09:10:32.405Z,1.27
2024-05-09T09:13:09.894Z,1.23
2024-05-09T09:15:51.087Z,1.20
2024-05-09T09:18:36.269Z,1.23
2024-05-09T09:21:03.636Z,1.08
2024-05-09T09:23:47.919Z,1.05
2024-05-09T09:26:17.680Z,1.20
2024-05-09T09:28:48.696Z,1.38
2024-05-09T09:31:21.349Z,1.35
2024-05-09T09:33:55.133Z,1.45
2024-05-09T09:36:28.507Z,1.38
2024-05-09T09:39:02.547Z,1.05
2024-05-09T09:41:36.877Z,1.15
2024-05-09T09:44:12.434Z,1.23
2024-05-09T09:46:43.488Z,1.27
2024-05-09T09:49:19.832Z,1.17
2024-05-09T09:51:52.438Z,1.60
2024-05-09T09:54:26.418Z,1.02
2024-05-09T09:57:04.677Z,1.02
2024-05-09T09:59:43.496Z,1.70
2024-05-09T10:02:11.154Z,1.27
2024-05-09T10:04:45.294Z,1.30
2024-05-09T10:07:24.443Z,1.50
2024-05-09T10:10:11.022Z,1.67
2024-05-09T10:12:40.523Z,1.30
2024-05-09T10:15:15.692Z,1.30
2024-05-09T10:17:51.626Z,1.73
2024-05-09T10:20:32.848Z,1.40
2024-05-09T10:23:03.888Z,1.65
2024-05-09T10:25:40.015Z,1.63
2024-05-09T10:28:17.382Z,1.70
2024-05-09T10:30:57.737Z,1.50
2024-05-09T10:33:26.244Z,1.02
2024-05-09T10:36:00.758Z,1.42
2024-05-09T10:38:33.421Z,1.63
2024-05-09T10:41:29.266Z,1.65
2024-05-09T10:44:03.655Z,1.30
2024-05-09T10:46:36.407Z,1.48
2024-05-09T10:49:08.030Z,1.17
2024-05-09T10:51:40.988Z,1.10
2024-05-09T10:54:17.623Z,1.40
2024-05-09T10:57:03.812Z,1.20
2024-05-09T10:59:42.620Z,1.25
2024-05-09T11:02:15.877Z,1.50
2024-05-09T11:04:52.334Z,1.17
2024-05-09T11:07:31.953Z,1.25
2024-05-09T11:10:02.888Z,1.40
2024-05-09T11:12:38.874Z,1.30
2024-05-09T11:15:10.734Z,1.25
2024-05-09T11:17:43.816Z,1.40
2024-05-09T11:20:26.445Z,1.60
2024-05-09T11:22:58.375Z,1.30
2024-05-09T11:25:39.036Z,1.70
2024-05-09T11:28:10.535Z,1.27
2024-05-09T11:30:46.630Z,1.15
2024-05-09T11:33:20.182Z,2.00
2024-05-09T11:36:01.265Z,1.45
2024-05-09T11:38:31.615Z,0.93
2024-05-09T11:41:12.075Z,1.15
2024-05-09T11:43:44.302Z,1.10
2024-05-09T11:46:18.776Z,1.17
2024-05-09T11:48:47.511Z,1.08
2024-05-09T11:51:26.939Z,1.30
2024-05-09T11:53:59.816Z,1.05
2024-05-09T11:56:32.892Z,1.40
2024-05-09T11:59:08.641Z,0.90
2024-05-09T12:01:52.287Z,0.85
2024-05-09T12:04:21.194Z,1.52
2024-05-09T12:06:55.790Z,0.95
2024-05-09T12:09:30.886Z,1.17
2024-05-09T12:12:05.616Z,1.10
2024-05-09T12:14:39.005Z,0.98
2024-05-09T12:17:10.431Z,1.30
2024-05-09T12:19:40.705Z,1.45
2024-05-09T12:22:12.547Z,1.03
2024-05-09T12:24:43.119Z,1.02
2024-05-09T12:27:16.196Z,0.90
2024-05-09T12:29:47.218Z,1.10
2024-05-09T12:32:18.739Z,1.50
2024-05-09T12:34:49.102Z,0.80
2024-05-09T12:37:34.070Z,1.17
2024-05-09T12:40:12.723Z,1.42
2024-05-09T12:43:00.216Z,1.40
2024-05-09T12:47:59.948Z,1.30
2024-05-09T12:50:34.783Z,1.00
2024-05-09T12:53:10.557Z,1.55
2024-05-09T12:55:53.557Z,0.88
2024-05-09T12:58:24.741Z,1.33
2024-05-09T13:00:58.587Z,1.30
2024-05-09T13:03:26.994Z,1.55
2024-05-09T13:06:00.850Z,0.80
2024-05-09T13:08:30.969Z,1.00
2024-05-09T13:13:39.987Z,1.38
2024-05-09T13:16:13.993Z,1.42
2024-05-09T13:18:44.817Z,1.27
2024-05-09T13:21:16.672Z,1.10
2024-05-09T13:23:45.110Z,1.00
2024-05-09T13:26:16.886Z,1.65
2024-05-09T13:28:45.598Z,1.30
2024-05-09T13:31:23.457Z,1.10
2024-05-09T13:34:02.672Z,1.00
2024-05-09T13:36:36.547Z,0.90
2024-05-09T13:39:08.179Z,0.88
2024-05-09T13:41:43.079Z,0.95
2024-05-09T13:44:13.272Z,1.17
2024-05-09T13:46:55.375Z,1.20
2024-05-09T13:49:26.366Z,1.30
2024-05-09T13:52:01.411Z,1.30
2024-05-09T13:54:28.967Z,1.33
2024-05-09T13:57:09.887Z,1.10
2024-05-09T13:59:41.708Z,1.17
2024-05-09T14:02:17.284Z,1.92
2024-05-09T14:04:45.884Z,1.20
2024-05-09T14:07:17.988Z,1.20
2024-05-09T14:09:54.123Z,1.00
2024-05-09T14:12:29.751Z,1.17
2024-05-09T14:14:59.669Z,1.10
2024-05-09T14:17:34.291Z,1.10
2024-05-09T14:20:23.818Z,1.10
2024-05-09T14:23:03.877Z,1.00
2024-05-09T14:25:47.241Z,1.17
2024-05-09T14:28:22.506Z,0.90
2024-05-09T14:30:51.900Z,1.02
2024-05-09T14:33:27.481Z,1.27
2024-05-09T14:36:11.937Z,1.40
2024-05-09T14:38:42.618Z,1.25
2024-05-09T14:41:22.123Z,1.05
2024-05-09T14:43:52.451Z,1.30
2024-05-09T14:46:23.908Z,1.53
2024-05-09T14:48:57.926Z,0.98
2024-05-09T14:51:36.694Z,1.30
2024-05-09T14:54:04.612Z,1.00
2024-05-09T14:59:27.716Z,1.00
2024-05-09T15:02:04.380Z,1.10
2024-05-09T15:04:41.464Z,1.08
2024-05-09T15:07:21.543Z,2.15
2024-05-09T15:09:59.084Z,0.93
2024-05-09T15:12:36.266Z,0.80
2024-05-09T15:15:09.732Z,0.88
2024-05-09T15:17:39.590Z,1.35
2024-05-09T15:20:16.775Z,2.22
2024-05-09T15:23:03.936Z,1.48
2024-05-09T15:25:41.679Z,1.27
2024-05-09T15:28:19.493Z,1.10
2024-05-09T15:31:00.693Z,0.80
2024-05-09T15:33:30.098Z,1.20
2024-05-09T15:36:03.419Z,0.90
2024-05-09T15:38:32.229Z,1.27
2024-05-09T15:41:08.167Z,1.27
2024-05-09T15:43:41.601Z,1.00
2024-05-09T15:46:20.278Z,1.05
2024-05-09T15:48:51.507Z,1.53
2024-05-09T15:51:25.263Z,1.07
2024-05-09T15:54:03.646Z,1.10
2024-05-09T15:56:35.131Z,1.30
2024-05-09T15:59:05.351Z,1.00
2024-05-09T16:04:20.689Z,1.15
2024-05-09T16:06:56.404Z,1.00
2024-05-09T16:09:25.146Z,0.77
2024-05-09T16:12:00.896Z,0.88
2024-05-09T16:14:29.242Z,1.27
2024-05-09T16:17:02.921Z,0.70
2024-05-09T16:19:40.004Z,0.82
2024-05-09T16:22:14.995Z,1.17
2024-05-09T16:27:33.860Z,1.20
2024-05-09T16:30:09.332Z,1.10
2024-05-09T16:32:54.913Z,0.73
2024-05-09T16:35:27.054Z,1.05
2024-05-09T16:38:00.250Z,1.05
2024-05-09T16:40:39.950Z,1.40
2024-05-09T16:43:26.820Z,0.90
2024-05-09T16:45:58.248Z,1.40
2024-05-09T16:48:31.992Z,0.90
2024-05-09T16:51:00.170Z,1.13
2024-05-09T16:53:30.969Z,1.13
2024-05-09T16:56:01.265Z,1.40
2024-05-09T16:58:36.697Z,1.30
2024-05-09T17:01:16.722Z,1.60
2024-05-09T17:04:01.970Z,1.50
2024-05-09T17:06:34.642Z,1.25
2024-05-09T17:09:11.996Z,1.13
2024-05-09T17:11:46.188Z,1.17
2024-05-09T17:14:17.695Z,1.05
2024-05-09T17:16:48.562Z,1.20
2024-05-09T17:19:25.795Z,1.17
2024-05-09T17:22:03.398Z,1.45
2024-05-09T17:24:35.283Z,1.23
2024-05-09T17:27:03.279Z,1.00
2024-05-09T17:29:44.822Z,1.30
2024-05-09T17:32:25.522Z,1.20
2024-05-09T17:34:59.305Z,1.30
2024-05-09T17:37:34.392Z,1.63
2024-05-09T17:40:14.164Z,1.33
2024-05-09T17:42:51.535Z,1.38
2024-05-09T17:45:21.033Z,1.17
2024-05-09T17:47:53.466Z,1.30
2024-05-09T17:50:37.612Z,5.88
2024-05-09T17:53:16.129Z,1.77
2024-05-09T17:55:44.388Z,1.75
2024-05-09T17:58:15.739Z,1.20
2024-05-09T18:00:49.862Z,1.40
2024-05-09T18:03:23.789Z,1.80
2024-05-09T18:05:54.553Z,1.10
2024-05-09T18:08:32.152Z,1.20
2024-05-09T18:11:00.602Z,1.40
2024-05-09T18:13:36.151Z,1.40
2024-05-09T18:16:10.421Z,1.38
2024-05-09T18:18:50.593Z,1.27
2024-05-09T18:21:20.984Z,1.40
2024-05-09T18:23:58.760Z,1.25
2024-05-09T18:26:31.406Z,1.20
2024-05-09T18:29:12.650Z,1.52
2024-05-09T18:31:46.594Z,1.67
2024-05-09T18:34:18.702Z,1.25
2024-05-09T18:36:47.934Z,1.23
2024-05-09T18:39:24.126Z,2.08
2024-05-09T18:41:57.246Z,1.52
2024-05-09T18:44:28.900Z,1.52
2024-05-09T18:47:01.373Z,1.90
2024-05-09T18:49:36.400Z,1.30
2024-05-09T18:52:07.633Z,1.27
2024-05-09T18:54:39.558Z,1.30
2024-05-09T18:57:10.327Z,1.52
2024-05-09T18:59:51.984Z,1.30
2024-05-09T19:04:57.778Z,3.85
2024-05-09T19:07:31.516Z,8.13
2024-05-09T19:10:22.151Z,1.10
2024-05-09T19:12:54.103Z,3.38
2024-05-09T19:15:29.430Z,1.73
2024-05-09T19:18:00.070Z,1.98
2024-05-09T19:20:35.325Z,1.63
2024-05-09T19:23:11.164Z,1.60
2024-05-09T19:25:45.390Z,2.58
2024-05-09T19:28:20.110Z,1.50
2024-05-09T19:30:58.405Z,1.65
2024-05-09T19:33:31.004Z,1.20
2024-05-09T19:36:03.150Z,1.40
2024-05-09T19:38:35.970Z,1.67
2024-05-09T19:41:12.563Z,1.95
2024-05-09T19:43:41.282Z,1.80
2024-05-09T19:46:11.636Z,1.58
2024-05-09T19:48:43.499Z,1.75
2024-05-09T19:51:20.299Z,2.33
2024-05-09T19:53:48.132Z,1.77
2024-05-09T19:56:18.473Z,2.65
2024-05-09T19:58:49.036Z,2.53
2024-05-09T20:01:26.645Z,1.70
2024-05-09T20:04:01.635Z,1.70
2024-05-09T20:06:39.446Z,1.75
2024-05-09T20:09:08.274Z,1.58
2024-05-09T20:11:51.715Z,1.98
2024-05-09T20:14:33.965Z,2.08
2024-05-09T20:17:11.128Z,1.98
2024-05-09T20:19:40.483Z,1.70
2024-05-09T20:22:18.158Z,1.55
2024-05-09T20:24:52.754Z,1.73
2024-05-09T20:27:28.209Z,1.80
2024-05-09T20:29:59.196Z,1.80
2024-05-09T20:32:40.757Z,2.25
2024-05-09T20:35:13.893Z,1.70
2024-05-09T20:37:50.266Z,2.05
2024-05-09T20:40:25.616Z,1.90
2024-05-09T20:43:12.511Z,1.90
2024-05-09T20:45:43.329Z,2.13
2024-05-09T20:48:22.827Z,2.22
2024-05-09T20:50:59.476Z,1.77
2024-05-09T20:53:40.564Z,2.40
2024-05-09T20:56:13.928Z,1.75
2024-05-09T20:58:55.213Z,2.20
2024-05-09T21:01:27.925Z,2.43
2024-05-09T21:04:03.689Z,1.60
2024-05-09T21:06:38.461Z,2.33
2024-05-09T21:09:17.933Z,2.10
2024-05-09T21:11:49.507Z,2.05
2024-05-09T21:14:31.585Z,2.63
2024-05-09T21:17:03.674Z,2.30
2024-05-09T21:19:44.578Z,3.23
2024-05-09T21:22:16.511Z,3.37
2024-05-09T21:24:55.841Z,2.90
2024-05-09T21:27:37.876Z,2.47
2024-05-09T21:30:22.835Z,3.40
2024-05-09T21:32:59.421Z,2.57
2024-05-09T21:35:40.391Z,2.50
2024-05-09T21:38:10.548Z,2.67
2024-05-09T21:40:50.783Z,2.58
2024-05-09T21:43:18.916Z,2.00
2024-05-09T21:45:54.662Z,1.97
2024-05-09T21:48:22.081Z,1.93
2024-05-09T21:50:55.222Z,1.80
2024-05-09T21:53:28.204Z,2.20
2024-05-09T21:56:03.855Z,2.30
2024-05-09T21:58:45.262Z,1.60
2024-05-09T22:01:22.473Z,1.63
2024-05-09T22:03:50.610Z,2.83
2024-05-09T22:06:28.835Z,2.20
2024-05-09T22:08:59.417Z,2.30
2024-05-09T22:11:41.508Z,2.27
2024-05-09T22:14:14.321Z,2.00
2024-05-09T22:16:53.047Z,1.73
2024-05-09T22:19:23.551Z,1.70
2024-05-09T22:22:00.524Z,2.40
2024-05-09T22:24:30.823Z,1.77
2024-05-09T22:27:09.112Z,2.20
2024-05-09T22:29:36.225Z,2.10
2024-05-09T22:32:11.276Z,2.13
2024-05-09T22:34:38.817Z,1.70
2024-05-09T22:37:17.825Z,2.50
2024-05-09T22:39:49.752Z,1.73
2024-05-09T22:42:23.494Z,1.30
2024-05-09T22:44:51.940Z,1.40
2024-05-09T22:47:24.613Z,2.03
2024-05-09T22:49:55.941Z,1.47
2024-05-09T22:52:31.286Z,2.50
2024-05-09T22:55:01.678Z,2.03
2024-05-09T22:57:32.463Z,1.50
2024-05-09T23:00:00.971Z,1.70
2024-05-09T23:02:32.673Z,1.70
2024-05-09T23:05:01.026Z,1.47
2024-05-09T23:07:38.495Z,1.50
2024-05-09T23:10:16.542Z,1.37
2024-05-09T23:12:56.301Z,1.70
2024-05-09T23:15:26.021Z,2.10
2024-05-09T23:17:58.417Z,1.50
2024-05-09T23:20:38.494Z,3.00
2024-05-09T23:23:15.554Z,1.98
2024-05-09T23:26:08.967Z,1.90
2024-05-09T23:28:42.123Z,2.10
2024-05-09T23:31:16.847Z,2.20
2024-05-09T23:33:49.933Z,2.67
2024-05-09T23:36:36.215Z,2.97
2024-05-09T23:39:10.863Z,2.33
2024-05-09T23:41:45.587Z,2.83
2024-05-09T23:44:13.236Z,2.33
2024-05-09T23:46:43.318Z,2.30
2024-05-09T23:49:17.610Z,3.20
2024-05-09T23:51:56.626Z,2.83
2024-05-09T23:54:31.398Z,3.20
2024-05-09T23:57:10.469Z,3.77
2024-05-09T23:59:44.731Z,3.60
